Time;durP1;ratioP1;P1;durP2;ratioP2;P2;SDS_P1;SDS_P2;PMS_P1;PMS_P2;Temp;Humidity;BMP_temperature;BMP_pressure;BME280_temperature;BME280_humidity;BME280_pressure;Samples;Min_cycle;Max_cycle;Signal;HPM_P1;HPM_P2
2022/09/01 00:01:38;;;;;;;6.37;3.70;;;;;;;14.81;74.59;98939.06;1611027;89;27511;-56
2022/09/01 00:04:07;;;;;;;5.62;3.65;;;;;;;14.76;74.49;98937.28;1610816;89;25660;-56
2022/09/01 00:06:34;;;;;;;6.58;3.83;;;;;;;14.70;74.50;98936.42;1610446;89;25611;-56
2022/09/01 00:09:05;;;;;;;4.83;3.58;;;;;;;14.63;74.60;98928.70;1610780;89;25780;-56
2022/09/01 00:11:32;;;;;;;5.55;4.08;;;;;;;14.62;74.43;98929.26;1610864;89;25617;-57
2022/09/01 00:14:01;;;;;;;7.12;4.20;;;;;;;14.59;74.40;98927.17;1610732;89;27407;-57
2022/09/01 00:16:29;;;;;;;6.25;4.10;;;;;;;14.51;74.60;98917.80;1610606;89;25652;-57
2022/09/01 00:18:57;;;;;;;6.40;3.92;;;;;;;14.51;74.60;98917.80;1610671;89;25508;-57
2022/09/01 00:21:31;;;;;;;5.87;3.60;;;;;;;14.55;74.91;98923.47;1610453;89;25839;-57
2022/09/01 00:23:59;;;;;;;6.65;3.20;;;;;;;14.53;74.80;98929.88;1610768;89;25534;-57
2022/09/01 00:26:26;;;;;;;7.28;3.60;;;;;;;14.52;74.79;98925.52;1610405;89;27457;-57
2022/09/01 00:28:54;;;;;;;5.92;3.30;;;;;;;14.49;74.75;98927.00;1610619;89;25454;-57
2022/09/01 00:31:21;;;;;;;5.35;3.50;;;;;;;14.48;74.71;98927.33;1610594;88;25763;-57
2022/09/01 00:33:49;;;;;;;5.40;3.42;;;;;;;14.48;74.71;98927.33;1610700;89;25765;-57
2022/09/01 00:36:17;;;;;;;4.50;3.40;;;;;;;14.47;75.23;98921.56;1610455;89;25487;-57
2022/09/01 00:38:45;;;;;;;6.50;3.42;;;;;;;14.43;75.12;98919.47;1610533;89;27498;-57
2022/09/01 00:41:12;;;;;;;8.10;3.55;;;;;;;14.33;75.01;98920.45;1610683;89;25508;-57
2022/09/01 00:43:47;;;;;;;5.08;3.62;;;;;;;14.29;75.44;98924.42;1610627;89;25506;-57
2022/09/01 00:46:19;;;;;;;6.10;3.65;;;;;;;14.26;75.18;98921.77;1610237;89;26104;-57
2022/09/01 00:48:52;;;;;;;6.22;3.60;;;;;;;14.22;75.10;98912.53;1610837;89;25514;-57
2022/09/01 00:51:20;;;;;;;6.33;4.00;;;;;;;14.20;75.14;98912.63;1610834;89;27314;-57
2022/09/01 00:53:48;;;;;;;5.90;3.47;;;;;;;14.20;75.14;98912.63;1610377;89;25667;-57
2022/09/01 00:56:15;;;;;;;4.83;3.62;;;;;;;14.14;75.24;98913.40;1610621;89;25760;-59
2022/09/01 00:58:42;;;;;;;4.67;3.15;;;;;;;14.14;75.39;98918.91;1610741;89;26359;-57
2022/09/01 01:01:11;;;;;;;5.72;3.30;;;;;;;14.15;75.54;98911.69;1610423;89;25527;-56
2022/09/01 01:03:43;;;;;;;5.87;3.40;;;;;;;14.17;75.48;98909.98;1610453;89;27511;-57
2022/09/01 01:06:08;;;;;;;5.83;3.25;;;;;;;14.07;75.24;98915.88;1609863;89;25899;-57
2022/09/01 01:08:39;;;;;;;6.15;3.22;;;;;;;13.96;75.41;98912.67;1610767;89;25475;-57
2022/09/01 01:11:08;;;;;;;;;;;;;;;13.86;75.63;98904.19;1613381;89;26309;-58
2022/09/01 01:13:58;;;;;;;4.75;3.17;;;;;;;13.78;75.64;98911.34;1610926;89;25445;-57
2022/09/01 01:16:28;;;;;;;5.12;3.15;;;;;;;13.71;75.72;98906.36;1610752;89;28111;-57
2022/09/01 01:18:55;;;;;;;5.35;4.00;;;;;;;13.66;75.76;98910.09;1611225;89;25691;-57
2022/09/01 01:24:28;;;;;;;6.70;3.55;;;;;;;13.61;76.06;98903.37;1610584;89;25478;-57
2022/09/01 01:26:58;;;;;;;4.90;3.10;;;;;;;13.53;76.41;98913.27;1610567;89;25764;-57
2022/09/01 01:29:27;;;;;;;4.80;3.20;;;;;;;13.56;76.42;98913.20;1610464;87;25929;-57
2022/09/01 01:31:54;;;;;;;5.70;2.80;;;;;;;13.56;76.42;98913.20;1610552;87;25699;-56
2022/09/01 01:34:21;;;;;;;5.60;2.90;;;;;;;13.60;76.46;98910.59;1610754;89;25671;-57
2022/09/01 01:36:49;;;;;;;3.83;3.05;;;;;;;13.65;76.35;98911.80;1610504;89;25788;-56
2022/09/01 01:39:24;;;;;;;4.47;2.95;;;;;;;13.66;76.44;98913.41;1610657;89;25661;-56
2022/09/01 01:41:53;;;;;;;5.85;3.10;;;;;;;13.60;76.58;98915.53;1610610;89;27428;-57
2022/09/01 01:44:26;;;;;;;6.70;3.65;;;;;;;13.61;76.64;98914.95;1610770;89;25700;-57
2022/09/01 01:46:54;;;;;;;5.20;3.12;;;;;;;13.60;76.72;98911.95;1610405;87;25799;-57
2022/09/01 01:49:26;;;;;;;5.30;3.30;;;;;;;13.51;76.75;98908.67;1610658;89;25693;-57
2022/09/01 01:51:54;;;;;;;5.70;3.05;;;;;;;13.48;77.12;98908.48;1610700;89;25453;-57
2022/09/01 01:54:23;;;;;;;4.25;3.00;;;;;;;13.50;76.96;98907.62;1610564;89;27432;-57
2022/09/01 01:56:49;;;;;;;5.35;3.30;;;;;;;13.48;77.10;98902.42;1610754;89;25772;-57
2022/09/01 01:59:18;;;;;;;5.05;3.00;;;;;;;13.47;77.14;98908.25;1610788;89;25700;-57
2022/09/01 02:01:49;;;;;;;3.87;3.12;;;;;;;13.43;77.14;98903.95;1610555;89;25955;-57
2022/09/01 02:04:18;;;;;;;4.67;3.05;;;;;;;13.39;77.35;98901.03;1610537;89;25641;-57
2022/09/01 02:06:47;;;;;;;5.25;3.00;;;;;;;13.43;77.44;98896.52;1610729;89;28237;-57
2022/09/01 02:09:17;;;;;;;5.33;2.77;;;;;;;13.48;77.25;98903.80;1610792;89;25634;-57
2022/09/01 02:11:44;;;;;;;4.95;3.30;;;;;;;13.47;77.35;98909.63;1610821;89;25692;-57
2022/09/01 02:14:14;;;;;;;6.40;2.95;;;;;;;13.44;77.46;98912.44;1610499;89;25811;-57
2022/09/01 02:16:41;;;;;;;4.58;2.83;;;;;;;13.45;77.38;98911.33;1610633;87;25707;-57
2022/09/01 02:19:10;;;;;;;3.87;2.87;;;;;;;13.40;77.30;98908.73;1610515;89;27456;-57
2022/09/01 02:21:36;;;;;;;7.95;3.37;;;;;;;13.28;77.96;98917.11;1610473;89;25787;-57
2022/09/01 02:24:07;;;;;;;5.15;3.25;;;;;;;13.17;78.36;98910.30;1610463;89;25679;-57
2022/09/01 02:26:41;;;;;;;6.53;3.40;;;;;;;13.10;78.81;98919.63;1610830;89;25830;-57
2022/09/01 02:29:16;;;;;;;5.83;3.25;;;;;;;13.02;79.00;98915.18;1610884;89;25621;-57
2022/09/01 02:31:40;;;;;;;5.37;3.30;;;;;;;13.05;78.56;98915.09;1610141;89;26728;-57
2022/09/01 02:34:09;;;;;;;6.30;3.20;;;;;;;13.05;78.56;98915.09;1612400;88;25483;-57
2022/09/01 02:36:41;;;;;;;9.00;3.80;;;;;;;13.15;78.80;98919.44;1612683;88;25684;-57
2022/09/01 02:39:05;;;;;;;6.22;2.98;;;;;;;13.22;78.17;98916.20;1612354;89;25638;-57
2022/09/01 02:41:33;;;;;;;4.42;2.80;;;;;;;13.27;78.10;98914.68;1613015;88;25676;-57
2022/09/01 02:44:01;;;;;;;4.80;3.10;;;;;;;13.30;77.98;98912.66;1612755;89;28140;-57
2022/09/01 02:46:28;;;;;;;6.22;2.87;;;;;;;13.30;77.80;98918.95;1612596;88;25766;-57
2022/09/01 02:48:55;;;;;;;5.58;3.08;;;;;;;13.24;78.17;98918.87;1613038;89;25438;-57
2022/09/01 02:51:27;;;;;;;4.22;3.12;;;;;;;13.26;78.16;98917.98;1612717;89;26592;-56
2022/09/01 02:53:52;;;;;;;4.58;2.95;;;;;;;13.30;78.26;98917.57;1611132;89;25438;-57
2022/09/01 02:56:24;;;;;;;4.90;2.75;;;;;;;13.31;78.03;98911.51;1612815;88;27592;-57
2022/09/01 02:58:52;;;;;;;7.85;3.47;;;;;;;13.22;77.32;98910.15;1612460;88;25450;-57
2022/09/01 03:01:25;;;;;;;6.97;3.35;;;;;;;13.14;77.75;98900.77;1612794;88;25538;-56
2022/09/01 03:03:57;;;;;;;9.15;3.10;;;;;;;13.14;78.53;98902.70;1612638;89;26209;-57
2022/09/01 03:06:24;;;;;;;8.78;4.00;;;;;;;13.03;78.17;98905.78;1612823;88;25707;-57
2022/09/01 03:08:58;;;;;;;7.80;4.10;;;;;;;13.05;77.86;98906.28;1612881;89;27458;-58
2022/09/01 03:11:28;;;;;;;6.17;3.65;;;;;;;13.07;77.73;98907.30;1612700;88;25505;-57
2022/09/01 03:13:54;;;;;;;5.75;3.67;;;;;;;13.09;77.71;98906.98;1612705;88;25782;-56
2022/09/01 03:16:21;;;;;;;5.97;3.42;;;;;;;13.03;77.87;98900.28;1612560;89;26653;-57
2022/09/01 03:18:49;;;;;;;8.23;3.85;;;;;;;13.01;77.79;98902.54;1612472;89;25640;-57
2022/09/01 03:21:16;;;;;;;8.08;3.40;;;;;;;13.03;77.76;98905.78;1612548;89;28269;-57
2022/09/01 03:23:45;;;;;;;7.15;3.55;;;;;;;13.09;77.96;98905.05;1612686;89;25821;-57
2022/09/01 03:26:12;;;;;;;5.12;3.22;;;;;;;13.07;78.04;98897.67;1612923;88;25433;-58
2022/09/01 03:28:39;;;;;;;8.95;3.25;;;;;;;13.06;78.00;98904.32;1634519;87;27858;-61
2022/09/01 03:31:09;;;;;;;8.55;3.47;;;;;;;13.04;78.07;98905.23;1646127;87;25683;-57
2022/09/01 03:33:35;;;;;;;8.35;3.70;;;;;;;13.08;78.06;98899.31;1646280;85;27572;-57
2022/09/01 03:36:03;;;;;;;7.22;3.45;;;;;;;13.03;77.87;98902.22;1645991;87;26094;-59
2022/09/01 03:38:31;;;;;;;7.55;3.62;;;;;;;13.00;78.36;98897.36;1646379;87;25768;-59
2022/09/01 03:41:03;;;;;;;5.67;3.40;;;;;;;12.98;78.32;98896.31;1646549;87;25733;-57
2022/09/01 03:43:33;;;;;;;6.72;3.50;;;;;;;12.99;78.30;98902.63;1646173;87;25845;-57
2022/09/01 03:46:00;;;;;;;8.25;3.87;;;;;;;12.98;78.48;98906.52;1635224;87;27498;-57
2022/09/01 03:48:29;;;;;;;7.00;4.03;;;;;;;12.99;78.69;98905.38;1611566;89;25765;-56
2022/09/01 03:51:01;;;;;;;7.35;4.17;;;;;;;12.98;78.61;98905.14;1611578;88;25708;-57
2022/09/01 03:53:32;;;;;;;7.00;3.20;;;;;;;12.99;78.78;98907.58;1611457;88;26410;-58
2022/09/01 03:55:59;;;;;;;7.40;3.17;;;;;;;12.96;78.61;98912.34;1614036;87;25808;-57
2022/09/01 03:58:25;;;;;;;4.85;3.20;;;;;;;12.93;78.75;98911.62;1612559;88;27426;-57
2022/09/01 04:00:57;;;;;;;5.80;3.10;;;;;;;12.90;78.36;98911.67;1612247;88;25755;-57
2022/09/01 04:03:27;;;;;;;9.85;3.67;;;;;;;12.89;78.90;98908.69;1612349;89;25732;-57
2022/09/01 04:05:54;;;;;;;8.08;3.77;;;;;;;12.87;78.93;98912.32;1612520;88;34854;-57
2022/09/01 04:08:29;;;;;;;6.08;3.40;;;;;;;12.82;78.55;98910.30;1612523;88;26447;-57
2022/09/01 04:10:54;;;;;;;7.80;3.62;;;;;;;12.77;78.69;98903.02;1611773;88;26468;-57
2022/09/01 04:13:25;;;;;;;5.67;3.40;;;;;;;12.73;79.06;98911.13;1611934;89;25787;-57
2022/09/01 04:15:52;;;;;;;6.15;3.50;;;;;;;12.68;79.51;98912.64;1611375;88;25778;-59
2022/09/01 04:18:19;;;;;;;4.15;3.02;;;;;;;12.62;79.86;98924.37;1611188;89;27885;-57
2022/09/01 04:20:52;;;;;;;5.85;3.20;;;;;;;12.58;80.22;98919.83;1611428;88;25744;-57
2022/09/01 04:23:28;;;;;;;6.78;3.20;;;;;;;12.56;80.00;98917.41;1611549;89;28285;-57
2022/09/01 04:25:59;;;;;;;5.60;3.20;;;;;;;12.58;80.15;98915.70;1611448;88;25732;-57
2022/09/01 04:28:35;;;;;;;6.08;3.00;;;;;;;12.57;80.28;98917.64;1611798;88;25766;-57
2022/09/01 04:31:07;;;;;;;5.58;3.15;;;;;;;12.55;80.57;98917.95;1611469;88;25703;-56
2022/09/01 04:33:38;;;;;;;6.05;3.30;;;;;;;12.57;81.25;98922.31;1611336;87;25688;-57
2022/09/01 04:36:27;;;;;;;3.42;2.52;;;;;;;12.58;80.74;98923.95;1611448;88;27505;-61
2022/09/01 04:38:59;;;;;;;5.45;2.98;;;;;;;12.60;80.97;98923.05;1611429;88;25754;-63
2022/09/01 04:41:34;;;;;;;8.38;3.10;;;;;;;12.61;80.86;98925.48;1611123;88;25783;-57
2022/09/01 04:44:03;;;;;;;4.42;3.00;;;;;;;12.64;80.80;98928.17;1610724;88;25683;-56
2022/09/01 04:46:30;;;;;;;7.08;3.70;;;;;;;12.66;80.98;98923.96;1612216;88;25741;-57
2022/09/01 04:48:57;;;;;;;4.35;2.95;;;;;;;12.72;80.76;98931.48;1612322;89;27894;-57
2022/09/01 04:51:26;;;;;;;5.10;2.83;;;;;;;12.77;80.75;98935.47;1613562;88;25638;-57
2022/09/01 04:53:56;;;;;;;6.10;2.83;;;;;;;12.80;80.87;98941.70;1613215;89;25449;-58
2022/09/01 04:56:25;;;;;;;5.60;3.17;;;;;;;12.80;80.56;98933.45;1613451;89;26586;-57
2022/09/01 04:58:55;;;;;;;4.22;2.83;;;;;;;12.82;80.62;98932.30;1613422;88;25626;-57
2022/09/01 05:01:26;;;;;;;6.97;2.75;;;;;;;12.81;80.31;98932.86;1613341;89;27691;-56
2022/09/01 05:04:00;;;;;;;4.15;2.37;;;;;;;12.80;80.42;98934.00;1613387;89;26002;-57
2022/09/01 05:06:24;;;;;;;6.17;2.98;;;;;;;12.76;80.32;98931.11;1612877;88;25709;-56
2022/09/01 05:08:51;;;;;;;7.85;3.22;;;;;;;12.69;80.59;98933.50;1613317;88;26513;-57
2022/09/01 05:11:18;;;;;;;5.72;3.05;;;;;;;12.68;80.62;98926.39;1613114;89;25809;-57
2022/09/01 05:13:48;;;;;;;7.45;3.35;;;;;;;12.75;80.75;98925.34;1613365;89;28246;-57
2022/09/01 05:16:20;;;;;;;6.03;3.22;;;;;;;12.80;80.52;98933.45;1613080;89;25255;-57
2022/09/01 05:18:48;;;;;;;5.20;3.10;;;;;;;12.87;80.93;98939.03;1613249;88;25753;-57
2022/09/01 05:21:20;;;;;;;6.03;3.40;;;;;;;12.92;80.76;98930.05;1613234;88;25762;-57
2022/09/01 05:23:47;;;;;;;5.95;3.08;;;;;;;12.95;80.50;98929.97;1613207;89;25662;-57
2022/09/01 05:26:17;;;;;;;5.30;2.77;;;;;;;12.97;80.13;98922.77;1613521;89;27780;-57
2022/09/01 05:28:46;;;;;;;6.00;3.00;;;;;;;12.98;80.22;98926.56;1612992;88;25732;-56
2022/09/01 05:31:18;;;;;;;4.47;2.55;;;;;;;13.03;80.15;98925.59;1613624;88;25467;-57
2022/09/01 05:33:44;;;;;;;5.42;2.72;;;;;;;13.04;80.04;98928.02;1612770;88;25520;-56
2022/09/01 05:36:12;;;;;;;4.47;3.02;;;;;;;13.05;80.04;98928.84;1613285;89;25665;-57
2022/09/01 05:38:43;;;;;;;5.42;2.85;;;;;;;13.09;80.17;98929.81;1613503;88;28454;-57
2022/09/01 05:41:13;;;;;;;5.25;2.67;;;;;;;13.13;80.32;98929.98;1612017;89;25725;-57
2022/09/01 05:43:38;;;;;;;6.95;2.87;;;;;;;13.14;80.43;98932.97;1613219;88;25471;-57
2022/09/01 05:46:08;;;;;;;5.28;2.95;;;;;;;13.17;80.24;98936.45;1613628;88;25926;-58
2022/09/01 05:48:38;;;;;;;4.22;2.92;;;;;;;13.25;80.54;98934.83;1613638;89;25633;-57
2022/09/01 05:51:07;;;;;;;4.40;3.17;;;;;;;13.35;79.97;98933.11;1612955;89;26772;-57
2022/09/01 05:53:33;;;;;;;7.15;3.02;;;;;;;13.45;79.41;98931.16;1612861;88;25472;-57
2022/09/01 05:56:05;;;;;;;4.00;2.35;;;;;;;13.57;79.30;98933.27;1613283;88;25473;-57
2022/09/01 05:58:33;;;;;;;3.17;2.42;;;;;;;13.71;78.24;98928.39;1613278;89;25715;-57
2022/09/01 06:01:01;;;;;;;4.50;2.60;;;;;;;13.82;77.60;98926.09;1613519;88;25693;-57
2022/09/01 06:03:30;;;;;;;4.47;2.40;;;;;;;13.93;77.59;98933.41;1613597;88;27452;-57
2022/09/01 06:06:04;;;;;;;2.35;1.70;;;;;;;14.02;76.58;98930.64;1613426;88;25968;-57
2022/09/01 06:08:31;;;;;;;3.92;2.50;;;;;;;14.10;76.52;98936.66;1613055;88;25640;-57
2022/09/01 06:10:57;;;;;;;4.25;2.55;;;;;;;14.20;76.26;98934.69;1613662;88;25785;-57
2022/09/01 06:13:24;;;;;;;4.03;2.37;;;;;;;14.30;76.11;98932.36;1613404;89;25652;-57
2022/09/01 06:15:57;;;;;;;4.95;2.52;;;;;;;14.39;75.13;98941.96;1613548;88;28233;-57
2022/09/01 06:18:22;;;;;;;5.03;2.50;;;;;;;14.54;74.77;98935.66;1613175;87;25456;-57
2022/09/01 06:20:49;;;;;;;3.52;2.55;;;;;;;14.70;73.63;98934.48;1613535;88;25496;-57
2022/09/01 06:23:17;;;;;;;6.78;2.58;;;;;;;14.75;72.76;98937.05;1613258;89;25738;-57
2022/09/01 06:25:47;;;;;;;3.80;2.45;;;;;;;14.71;73.24;98937.47;1613675;88;25460;-57
2022/09/01 06:28:18;;;;;;;9.28;2.95;;;;;;;14.71;72.21;98938.06;1613477;88;28230;-57
2022/09/01 06:30:46;;;;;;;6.42;2.77;;;;;;;14.77;72.43;98933.97;1613818;88;25745;-57
2022/09/01 06:33:13;;;;;;;3.62;2.10;;;;;;;14.99;71.23;98938.92;1613378;89;25713;-57
2022/09/01 06:35:43;;;;;;;4.95;2.65;;;;;;;14.99;71.23;98938.92;1615599;88;25772;-58
2022/09/01 06:38:12;;;;;;;5.05;2.40;;;;;;;14.99;71.15;98944.45;1589230;89;25466;-57
2022/09/01 06:40:40;;;;;;;8.05;2.45;;;;;;;15.11;71.75;98948.66;1629306;88;27564;-57
2022/09/01 06:43:08;;;;;;;4.40;1.90;;;;;;;15.16;71.18;98955.92;1589077;90;25654;-57
2022/09/01 06:45:48;;;;;;;3.45;2.02;;;;;;;15.22;70.43;98955.14;1605635;88;25755;-57
2022/09/01 06:48:14;;;;;;;7.95;2.25;;;;;;;15.28;70.39;98953.79;1589109;90;25655;-57
2022/09/01 06:50:41;;;;;;;5.55;2.27;;;;;;;15.46;70.37;98958.61;1629267;88;25614;-57
2022/09/01 06:53:15;;;;;;;3.92;1.75;;;;;;;15.52;69.63;98959.20;1589629;90;28266;-57
2022/09/01 06:55:42;;;;;;;3.27;1.87;;;;;;;15.47;69.13;98965.73;1647277;87;25827;-57
2022/09/01 06:58:14;;;;;;;3.37;1.85;;;;;;;15.41;68.91;98962.95;1647741;87;25707;-57
2022/09/01 07:00:41;;;;;;;2.62;1.87;;;;;;;15.44;69.20;98962.27;1647372;87;25463;-57
2022/09/01 07:03:13;;;;;;;3.70;2.00;;;;;;;15.54;68.97;98963.79;1647698;87;25684;-57
2022/09/01 07:05:46;;;;;;;4.15;2.02;;;;;;;15.72;68.59;98968.59;1648046;87;27473;-57
2022/09/01 07:08:22;;;;;;;4.67;2.22;;;;;;;15.89;68.44;98968.17;1647658;87;25528;-57
2022/09/01 07:10:48;;;;;;;3.25;1.72;;;;;;;16.08;68.52;98966.27;1639738;85;25713;-57
2022/09/01 07:13:21;;;;;;;2.37;1.70;;;;;;;16.21;67.04;98953.27;1643870;87;25738;-57
2022/09/01 07:15:54;;;;;;;2.47;1.60;;;;;;;16.35;66.78;98962.59;1645594;86;25789;-57
2022/09/01 07:18:24;;;;;;;4.17;1.80;;;;;;;16.51;66.95;98968.81;1645459;85;27455;-57
2022/09/01 07:20:52;;;;;;;3.77;1.20;;;;;;;16.55;65.10;98971.11;1646656;86;25745;-57
2022/09/01 07:23:20;;;;;;;1.62;1.35;;;;;;;16.71;64.22;98964.88;1647090;87;25706;-57
2022/09/01 07:25:53;;;;;;;2.05;1.37;;;;;;;16.92;64.92;98968.88;1652986;86;25976;-64
2022/09/01 07:28:18;;;;;;;2.65;1.92;;;;;;;17.01;63.78;98963.23;1661742;86;25694;-57
2022/09/01 07:30:49;;;;;;;2.08;1.40;;;;;;;17.10;64.03;98966.67;1661002;85;27400;-57
2022/09/01 07:33:23;;;;;;;3.47;1.70;;;;;;;17.16;63.14;98963.89;1664505;85;25740;-56
2022/09/01 07:35:48;;;;;;;4.25;1.50;;;;;;;17.24;63.09;98965.51;1673068;83;25706;-58
2022/09/01 07:38:18;;;;;;;3.98;1.60;;;;;;;17.24;62.73;98969.66;1673096;85;25734;-58
2022/09/01 07:40:44;;;;;;;2.75;1.60;;;;;;;17.39;63.67;98967.50;1672807;84;25745;-57
2022/09/01 07:43:24;;;;;;;2.67;1.17;;;;;;;17.60;61.43;98964.30;1673093;85;27402;-57
2022/09/01 07:45:58;;;;;;;2.12;1.05;;;;;;;17.64;60.47;98967.97;1673336;85;25709;-58
2022/09/01 07:48:26;;;;;;;1.70;1.00;;;;;;;17.76;59.96;98963.76;1672924;85;25680;-57
2022/09/01 07:50:56;;;;;;;2.25;1.20;;;;;;;17.83;59.53;98968.70;1673320;85;26497;-58
2022/09/01 07:53:30;;;;;;;1.62;1.12;;;;;;;18.00;58.85;98974.49;1672991;85;25487;-57
2022/09/01 07:55:56;;;;;;;2.85;1.00;;;;;;;18.13;58.80;98970.28;1672483;85;27185;-57
2022/09/01 07:58:27;;;;;;;3.95;1.20;;;;;;;18.26;60.06;98969.03;1673344;85;25613;-57
2022/09/01 08:00:56;;;;;;;3.00;1.17;;;;;;;18.65;59.21;98966.95;1673157;84;25669;-57
2022/09/01 08:03:24;;;;;;;4.08;1.30;;;;;;;19.06;57.94;98969.45;1673067;85;25756;-57
2022/09/01 08:05:56;;;;;;;3.12;1.00;;;;;;;19.13;57.54;98962.47;1673507;85;25639;-57
2022/09/01 08:08:20;;;;;;;3.72;1.10;;;;;;;19.15;55.28;98962.91;1672590;85;25816;-57
2022/09/01 08:10:47;;;;;;;2.58;1.55;;;;;;;19.28;55.67;98967.16;1673112;85;25592;-57
2022/09/01 08:13:16;;;;;;;5.47;1.20;;;;;;;19.52;56.67;98961.67;1673225;85;25458;-57
2022/09/01 08:15:43;;;;;;;1.85;1.22;;;;;;;19.65;54.89;98967.28;1673832;85;25715;-57
2022/09/01 08:18:10;;;;;;;1.47;0.60;;;;;;;19.73;53.65;98966.02;1673103;85;25641;-57
2022/09/01 08:20:44;;;;;;;1.92;0.65;;;;;;;19.71;52.04;98963.61;1673133;85;27504;-56
2022/09/01 08:23:08;;;;;;;2.25;1.00;;;;;;;19.68;51.83;98964.34;1672283;85;25463;-59
2022/09/01 08:25:37;;;;;;;1.62;1.00;;;;;;;19.84;52.27;98964.26;1673413;85;25713;-57
2022/09/01 08:28:05;;;;;;;1.05;0.70;;;;;;;19.97;50.71;98964.09;1673433;85;26347;-56
2022/09/01 08:30:33;;;;;;;1.85;0.90;;;;;;;20.19;49.97;98965.28;1673425;85;25423;-57
2022/09/01 08:33:03;;;;;;;2.10;0.80;;;;;;;20.25;49.60;98973.53;1673100;85;27455;-57
2022/09/01 08:35:30;;;;;;;1.72;0.90;;;;;;;20.43;48.54;98968.26;1665487;84;25581;-57
2022/09/01 08:37:58;;;;;;;1.30;0.80;;;;;;;20.75;49.81;98969.92;1613868;88;25508;-57
2022/09/01 08:40:26;;;;;;;4.17;0.82;;;;;;;21.04;48.19;98971.74;1614000;88;25687;-57
2022/09/01 08:43:25;;;;;;;2.95;0.88;;;;;;;21.24;48.53;98967.41;1661290;86;25692;-57
2022/09/01 08:45:56;;;;;;;4.28;1.00;;;;;;;21.49;48.20;98959.95;1661418;86;27414;-56
2022/09/01 08:48:43;;;;;;;2.08;0.78;;;;;;;21.73;48.94;98976.55;1661496;86;25637;-57
2022/09/01 08:51:43;;;;;;;4.00;1.00;;;;;;;22.14;46.40;98968.19;1661469;86;25479;-57
2022/09/01 08:54:48;;;;;;;1.10;0.80;;;;;;;22.17;45.18;98965.23;1661458;86;26580;-56
2022/09/01 08:57:35;;;;;;;2.95;0.75;;;;;;;21.90;44.16;98959.21;1661301;86;25580;-58
2022/09/01 09:00:07;;;;;;;0.80;0.70;;;;;;;22.01;44.02;98968.27;1661195;86;27594;-57
2022/09/01 09:03:00;;;;;;;1.07;0.62;;;;;;;21.90;44.74;98963.97;1661144;86;25464;-57
2022/09/01 09:05:47;;;;;;;1.40;0.80;;;;;;;22.28;44.70;98966.11;1661348;86;25722;-57
2022/09/01 09:08:28;;;;;;;0.90;0.62;;;;;;;22.41;43.19;98970.00;1661384;86;25728;-57
2022/09/01 09:11:04;;;;;;;0.88;0.68;;;;;;;22.63;44.06;98968.22;1661469;86;25447;-56
2022/09/01 09:14:01;;;;;;;1.20;0.80;;;;;;;22.84;42.81;98967.33;1661313;86;27346;-57
2022/09/01 09:16:48;;;;;;;1.57;0.65;;;;;;;23.02;42.35;98960.44;1661493;86;25592;-57
2022/09/01 09:19:22;;;;;;;1.50;0.80;;;;;;;22.88;41.80;98969.57;1661754;86;25417;-58
2022/09/01 09:21:52;;;;;;;2.15;0.78;;;;;;;22.74;41.13;98966.87;1661503;86;25762;-58
2022/09/01 09:24:54;;;;;;;1.22;0.75;;;;;;;22.89;40.81;98963.59;1661801;85;25456;-58
2022/09/01 09:27:28;;;;;;;3.17;1.27;;;;;;;23.13;40.07;98956.30;1659968;86;26844;-59
2022/09/01 09:29:59;;;;;;;2.37;1.05;;;;;;;23.44;40.76;98961.06;1660824;86;25848;-58
2022/09/01 09:33:05;;;;;;;2.95;1.35;;;;;;;22.99;40.36;98973.21;1661487;85;25681;-57
2022/09/01 09:35:40;;;;;;;2.17;1.30;;;;;;;22.35;41.76;98974.34;1665016;84;25431;-58
2022/09/01 09:38:18;;;;;;;3.05;1.02;;;;;;;21.81;43.06;98973.47;1673314;85;25701;-58
2022/09/01 09:41:04;;;;;;;2.47;1.52;;;;;;;21.56;43.26;98970.40;1673126;85;27492;-61
2022/09/01 09:43:36;;;;;;;3.62;1.37;;;;;;;21.61;44.68;98965.85;1673328;85;25967;-60
2022/09/01 09:46:29;;;;;;;3.62;1.20;;;;;;;21.98;44.34;98966.25;1671198;85;25664;-58
2022/09/01 09:49:29;;;;;;;2.75;1.22;;;;;;;22.38;42.43;98966.59;1671320;85;26282;-59
2022/09/01 09:52:09;;;;;;;3.08;1.40;;;;;;;22.50;41.39;98969.08;1671024;85;25639;-58
2022/09/01 09:54:40;;;;;;;3.25;1.35;;;;;;;22.25;42.90;98966.89;1671321;85;27424;-58
2022/09/01 09:57:15;;;;;;;1.90;1.17;;;;;;;22.10;43.21;98960.38;1671576;85;25746;-59
2022/09/01 09:59:54;;;;;;;2.85;1.20;;;;;;;21.88;43.44;98964.36;1671499;85;25820;-58
2022/09/01 10:02:44;;;;;;;2.47;0.70;;;;;;;21.63;43.24;98964.89;1671459;85;26535;-57
2022/09/01 10:05:43;;;;;;;1.05;0.70;;;;;;;21.45;42.88;98966.09;1671481;85;25489;-57
2022/09/01 10:08:14;;;;;;;1.90;0.70;;;;;;;21.17;43.08;98966.75;1671406;85;28226;-57
2022/09/01 10:10:49;;;;;;;0.70;0.50;;;;;;;21.06;45.45;98959.64;1671178;85;25742;-58
2022/09/01 10:13:20;;;;;;;1.42;0.60;;;;;;;21.35;44.59;98965.34;1671402;85;25719;-57
2022/09/01 10:15:51;;;;;;;2.72;0.88;;;;;;;21.60;43.80;98962.87;1671460;85;25759;-57
2022/09/01 10:18:22;;;;;;;2.02;0.68;;;;;;;22.12;44.20;98960.81;1671573;85;25724;-58
2022/09/01 10:21:15;;;;;;;0.80;0.70;;;;;;;22.43;41.86;98958.65;1671505;85;27552;-57
2022/09/01 10:23:54;;;;;;;1.40;0.70;;;;;;;22.92;41.86;98953.62;1670974;85;25311;-58
2022/09/01 10:26:48;;;;;;;0.70;0.68;;;;;;;23.48;39.90;98955.46;1672795;85;25719;-57
2022/09/01 10:29:24;;;;;;;0.90;0.60;;;;;;;23.31;39.53;98952.19;1672694;85;25854;-59
2022/09/01 10:31:53;;;;;;;1.27;0.60;;;;;;;22.46;39.66;98959.89;1672431;85;25435;-58
2022/09/01 10:34:21;;;;;;;0.80;0.60;;;;;;;22.19;41.44;98955.28;1672945;85;27531;-57
2022/09/01 10:36:49;;;;;;;0.93;0.57;;;;;;;22.53;41.04;98952.14;1673037;84;25695;-58
2022/09/01 10:39:18;;;;;;;1.50;0.42;;;;;;;22.46;39.56;98957.09;1673540;85;25711;-58
2022/09/01 10:42:06;;;;;;;0.50;0.40;;;;;;;22.35;39.36;98949.22;1673330;85;25704;-57
2022/09/01 10:44:39;;;;;;;1.25;0.57;;;;;;;22.67;41.22;98946.69;1673054;84;25702;-57
2022/09/01 10:47:28;;;;;;;2.72;0.75;;;;;;;23.40;41.49;98946.27;1644127;85;28639;-59
2022/09/01 10:50:09;;;;;;;2.00;0.60;;;;;;;23.19;41.43;98951.35;1673431;85;25625;-58
2022/09/01 10:52:46;;;;;;;0.78;0.60;;;;;;;22.60;42.58;98952.83;1670404;85;25651;-57
2022/09/01 10:55:42;;;;;;;1.87;0.70;;;;;;;22.29;42.98;98957.97;1673509;85;25751;-56
2022/09/01 10:58:27;;;;;;;1.10;0.62;;;;;;;21.79;43.67;98955.52;1673052;85;25439;-56
2022/09/01 11:00:54;;;;;;;0.75;0.75;;;;;;;21.55;44.61;98957.62;1673040;85;28359;-63
2022/09/01 11:03:37;;;;;;;1.95;0.70;;;;;;;22.47;43.44;98948.10;1673153;85;25646;-63
2022/09/01 11:06:08;;;;;;;1.05;0.72;;;;;;;23.23;41.98;98944.36;1673398;85;25517;-61
2022/09/01 11:08:45;;;;;;;1.32;0.90;;;;;;;23.27;41.31;98941.00;1673412;85;25887;-63
2022/09/01 11:11:40;;;;;;;0.57;0.50;;;;;;;22.92;41.73;98944.65;1673329;85;25592;-63
2022/09/01 11:14:25;;;;;;;1.82;0.80;;;;;;;22.44;41.30;98951.09;1660005;86;27482;-63
2022/09/01 11:17:18;;;;;;;2.10;0.60;;;;;;;21.84;41.98;98945.40;1659385;86;25805;-56
2022/09/01 11:20:08;;;;;;;1.98;0.72;;;;;;;21.50;43.14;98951.78;1660438;86;25808;-56
2022/09/01 11:22:41;;;;;;;;;;;;;;;21.41;43.29;98950.70;1662551;86;25762;-56
2022/09/01 11:25:33;;;;;;;1.47;0.60;;;;;;;22.08;43.31;98934.06;1660033;86;25758;-58
2022/09/01 11:28:08;;;;;;;1.22;0.50;;;;;;;22.64;41.12;98944.67;1660155;86;27485;-58
2022/09/01 11:31:10;;;;;;;0.70;0.55;;;;;;;22.66;39.20;98942.31;1659089;86;25825;-58
2022/09/01 11:34:12;;;;;;;2.65;0.60;;;;;;;22.39;38.74;98948.67;1578513;90;25758;-59
2022/09/01 11:36:52;;;;;;;0.93;0.60;;;;;;;22.29;39.78;98945.41;1578999;89;25906;-56
2022/09/01 11:39:32;;;;;;;0.60;0.40;;;;;;;22.14;40.09;98936.70;1579141;90;25764;-59
2022/09/01 11:42:19;;;;;;;1.75;0.55;;;;;;;21.77;39.57;98938.36;1579462;90;27419;-57
2022/09/01 11:45:06;;;;;;;1.12;0.50;;;;;;;21.51;41.12;98943.66;1578877;90;25366;-56
2022/09/01 11:47:43;;;;;;;0.85;0.50;;;;;;;21.41;42.39;98943.73;1579020;90;25760;-58
2022/09/01 11:50:32;;;;;;;1.05;0.60;;;;;;;21.22;42.32;98945.30;1579148;90;25739;-57
2022/09/01 11:53:21;;;;;;;1.00;0.55;;;;;;;20.99;42.02;98935.06;1562031;91;25511;-56
2022/09/01 11:55:52;;;;;;;1.65;0.55;;;;;;;20.90;43.55;98938.11;1561603;91;27954;-57
2022/09/01 11:58:33;;;;;;;1.15;0.50;;;;;;;21.28;43.54;98934.02;1561605;91;25863;-57
2022/09/01 12:01:21;;;;;;;2.55;0.53;;;;;;;22.14;43.66;98929.73;1561943;91;25546;-56
2022/09/01 12:03:51;;;;;;;0.82;0.50;;;;;;;22.78;40.05;98916.03;1561589;91;25777;-56